sensor_id;sensor_type;location;lat;lon;timestamp;P1;durP1;ratioP1;P2;durP2;ratioP2
53207;SDS011;39093;52.788;6.940;2024-01-30T00:01:08;30.45;;;21.45;;
53207;SDS011;39093;52.788;6.940;2024-01-30T00:03:35;27.20;;;19.98;;
53207;SDS011;39093;52.788;6.940;2024-01-30T00:06:05;31.60;;;20.42;;
53207;SDS011;39093;52.788;6.940;2024-01-30T00:08:33;27.95;;;19.27;;
53207;SDS011;39093;52.788;6.940;2024-01-30T00:11:00;30.10;;;20.48;;
53207;SDS011;39093;52.788;6.940;2024-01-30T00:13:27;35.67;;;21.48;;
53207;SDS011;39093;52.788;6.940;2024-01-30T00:15:54;27.40;;;19.85;;
53207;SDS011;39093;52.788;6.940;2024-01-30T00:18:21;28.77;;;19.38;;
53207;SDS011;39093;52.788;6.940;2024-01-30T00:20:48;31.20;;;19.65;;
53207;SDS011;39093;52.788;6.940;2024-01-30T00:23:16;29.63;;;19.08;;
53207;SDS011;39093;52.788;6.940;2024-01-30T00:25:44;36.13;;;20.48;;
53207;SDS011;39093;52.788;6.940;2024-01-30T00:28:10;25.08;;;18.80;;
53207;SDS011;39093;52.788;6.940;2024-01-30T00:30:37;29.80;;;20.17;;
53207;SDS011;39093;52.788;6.940;2024-01-30T00:33:04;32.60;;;18.05;;
53207;SDS011;39093;52.788;6.940;2024-01-30T00:35:32;30.52;;;19.77;;
53207;SDS011;39093;52.788;6.940;2024-01-30T00:37:58;26.27;;;19.33;;
53207;SDS011;39093;52.788;6.940;2024-01-30T00:40:26;30.63;;;20.02;;
53207;SDS011;39093;52.788;6.940;2024-01-30T00:42:53;32.05;;;20.20;;
53207;SDS011;39093;52.788;6.940;2024-01-30T00:45:20;28.52;;;17.63;;
53207;SDS011;39093;52.788;6.940;2024-01-30T00:47:47;30.67;;;20.52;;
53207;SDS011;39093;52.788;6.940;2024-01-30T00:50:14;31.48;;;20.38;;
53207;SDS011;39093;52.788;6.940;2024-01-30T00:52:42;33.92;;;19.60;;
53207;SDS011;39093;52.788;6.940;2024-01-30T00:55:11;29.90;;;19.45;;
53207;SDS011;39093;52.788;6.940;2024-01-30T00:57:39;27.05;;;18.80;;
53207;SDS011;39093;52.788;6.940;2024-01-30T01:00:10;30.85;;;19.13;;
53207;SDS011;39093;52.788;6.940;2024-01-30T01:02:38;27.45;;;17.65;;
53207;SDS011;39093;52.788;6.940;2024-01-30T01:05:06;25.55;;;18.52;;
53207;SDS011;39093;52.788;6.940;2024-01-30T01:07:33;26.88;;;17.45;;
53207;SDS011;39093;52.788;6.940;2024-01-30T01:10:00;26.45;;;17.80;;
53207;SDS011;39093;52.788;6.940;2024-01-30T01:12:27;34.38;;;17.98;;
53207;SDS011;39093;52.788;6.940;2024-01-30T01:14:55;28.77;;;17.90;;
53207;SDS011;39093;52.788;6.940;2024-01-30T01:17:22;29.25;;;17.23;;
53207;SDS011;39093;52.788;6.940;2024-01-30T01:19:48;26.75;;;17.05;;
53207;SDS011;39093;52.788;6.940;2024-01-30T01:22:16;23.92;;;16.90;;
53207;SDS011;39093;52.788;6.940;2024-01-30T01:24:43;25.00;;;17.15;;
53207;SDS011;39093;52.788;6.940;2024-01-30T01:27:10;25.33;;;18.83;;
53207;SDS011;39093;52.788;6.940;2024-01-30T01:29:37;25.95;;;17.35;;
53207;SDS011;39093;52.788;6.940;2024-01-30T01:32:04;26.58;;;17.45;;
53207;SDS011;39093;52.788;6.940;2024-01-30T01:34:32;30.25;;;18.15;;
53207;SDS011;39093;52.788;6.940;2024-01-30T01:36:59;24.27;;;17.40;;
53207;SDS011;39093;52.788;6.940;2024-01-30T01:39:26;23.83;;;16.60;;
53207;SDS011;39093;52.788;6.940;2024-01-30T01:41:53;25.23;;;17.05;;
53207;SDS011;39093;52.788;6.940;2024-01-30T01:44:20;28.40;;;17.88;;
53207;SDS011;39093;52.788;6.940;2024-01-30T01:46:47;26.95;;;17.48;;
53207;SDS011;39093;52.788;6.940;2024-01-30T01:49:14;25.10;;;18.13;;
53207;SDS011;39093;52.788;6.940;2024-01-30T01:51:42;27.67;;;17.70;;
53207;SDS011;39093;52.788;6.940;2024-01-30T01:54:11;27.40;;;17.60;;
53207;SDS011;39093;52.788;6.940;2024-01-30T01:56:38;28.38;;;16.45;;
53207;SDS011;39093;52.788;6.940;2024-01-30T01:59:07;28.15;;;17.58;;
53207;SDS011;39093;52.788;6.940;2024-01-30T02:01:38;33.75;;;17.92;;
53207;SDS011;39093;52.788;6.940;2024-01-30T02:04:07;24.95;;;17.70;;
53207;SDS011;39093;52.788;6.940;2024-01-30T02:06:34;29.08;;;18.50;;
53207;SDS011;39093;52.788;6.940;2024-01-30T02:09:02;29.63;;;17.92;;
53207;SDS011;39093;52.788;6.940;2024-01-30T02:11:31;23.73;;;17.95;;
53207;SDS011;39093;52.788;6.940;2024-01-30T02:14:02;27.73;;;17.98;;
53207;SDS011;39093;52.788;6.940;2024-01-30T02:16:32;28.48;;;17.85;;
53207;SDS011;39093;52.788;6.940;2024-01-30T02:18:59;25.45;;;17.23;;
53207;SDS011;39093;52.788;6.940;2024-01-30T02:21:26;26.25;;;17.67;;
53207;SDS011;39093;52.788;6.940;2024-01-30T02:23:53;32.15;;;18.60;;
53207;SDS011;39093;52.788;6.940;2024-01-30T02:26:22;29.45;;;17.65;;
53207;SDS011;39093;52.788;6.940;2024-01-30T02:28:48;24.80;;;17.00;;
53207;SDS011;39093;52.788;6.940;2024-01-30T02:31:15;26.27;;;17.73;;
53207;SDS011;39093;52.788;6.940;2024-01-30T02:33:42;25.10;;;16.95;;
53207;SDS011;39093;52.788;6.940;2024-01-30T02:36:09;25.42;;;17.42;;
53207;SDS011;39093;52.788;6.940;2024-01-30T02:38:36;29.15;;;18.50;;
53207;SDS011;39093;52.788;6.940;2024-01-30T02:41:03;28.02;;;18.05;;
53207;SDS011;39093;52.788;6.940;2024-01-30T02:43:30;25.98;;;18.67;;
53207;SDS011;39093;52.788;6.940;2024-01-30T02:45:57;27.60;;;17.88;;
53207;SDS011;39093;52.788;6.940;2024-01-30T02:48:26;26.55;;;18.13;;
53207;SDS011;39093;52.788;6.940;2024-01-30T02:50:53;26.45;;;18.77;;
53207;SDS011;39093;52.788;6.940;2024-01-30T02:53:20;26.77;;;18.90;;
53207;SDS011;39093;52.788;6.940;2024-01-30T02:55:47;31.00;;;19.45;;
53207;SDS011;39093;52.788;6.940;2024-01-30T02:58:14;28.85;;;18.98;;
53207;SDS011;39093;52.788;6.940;2024-01-30T03:00:41;26.27;;;18.13;;
53207;SDS011;39093;52.788;6.940;2024-01-30T03:03:08;25.00;;;17.83;;
53207;SDS011;39093;52.788;6.940;2024-01-30T03:05:35;29.73;;;19.58;;
53207;SDS011;39093;52.788;6.940;2024-01-30T03:08:02;29.45;;;19.05;;
53207;SDS011;39093;52.788;6.940;2024-01-30T03:10:31;30.95;;;20.50;;
53207;SDS011;39093;52.788;6.940;2024-01-30T03:12:58;30.23;;;18.58;;
53207;SDS011;39093;52.788;6.940;2024-01-30T03:15:25;25.30;;;18.88;;
53207;SDS011;39093;52.788;6.940;2024-01-30T03:17:53;28.00;;;18.95;;
53207;SDS011;39093;52.788;6.940;2024-01-30T03:20:20;26.30;;;19.00;;
53207;SDS011;39093;52.788;6.940;2024-01-30T03:22:47;28.10;;;20.20;;
53207;SDS011;39093;52.788;6.940;2024-01-30T03:25:14;26.77;;;19.70;;
53207;SDS011;39093;52.788;6.940;2024-01-30T03:27:42;30.23;;;19.25;;
53207;SDS011;39093;52.788;6.940;2024-01-30T03:30:09;34.28;;;20.33;;
53207;SDS011;39093;52.788;6.940;2024-01-30T03:32:36;30.60;;;20.10;;
53207;SDS011;39093;52.788;6.940;2024-01-30T03:35:03;30.27;;;20.88;;
53207;SDS011;39093;52.788;6.940;2024-01-30T03:37:30;28.27;;;20.70;;
53207;SDS011;39093;52.788;6.940;2024-01-30T03:39:57;31.73;;;20.98;;
53207;SDS011;39093;52.788;6.940;2024-01-30T03:42:24;29.38;;;21.52;;
53207;SDS011;39093;52.788;6.940;2024-01-30T03:44:51;33.88;;;22.15;;
53207;SDS011;39093;52.788;6.940;2024-01-30T03:47:19;39.45;;;22.13;;
53207;SDS011;39093;52.788;6.940;2024-01-30T03:49:47;34.63;;;21.65;;
53207;SDS011;39093;52.788;6.940;2024-01-30T03:52:14;34.60;;;21.80;;
53207;SDS011;39093;52.788;6.940;2024-01-30T03:54:41;32.22;;;20.75;;
53207;SDS011;39093;52.788;6.940;2024-01-30T03:57:08;28.40;;;20.33;;
53207;SDS011;39093;52.788;6.940;2024-01-30T03:59:35;30.35;;;20.35;;
53207;SDS011;39093;52.788;6.940;2024-01-30T04:02:02;32.63;;;22.00;;
53207;SDS011;39093;52.788;6.940;2024-01-30T04:04:29;29.35;;;20.83;;
53207;SDS011;39093;52.788;6.940;2024-01-30T04:06:56;32.80;;;21.90;;
53207;SDS011;39093;52.788;6.940;2024-01-30T04:09:23;28.45;;;20.42;;
53207;SDS011;39093;52.788;6.940;2024-01-30T04:11:52;26.85;;;20.80;;
53207;SDS011;39093;52.788;6.940;2024-01-30T04:14:19;26.95;;;20.67;;
53207;SDS011;39093;52.788;6.940;2024-01-30T04:16:46;32.38;;;21.25;;
53207;SDS011;39093;52.788;6.940;2024-01-30T04:19:13;29.58;;;21.05;;
53207;SDS011;39093;52.788;6.940;2024-01-30T04:21:41;25.88;;;20.55;;
53207;SDS011;39093;52.788;6.940;2024-01-30T04:24:08;31.95;;;21.02;;
53207;SDS011;39093;52.788;6.940;2024-01-30T04:26:34;32.97;;;20.45;;
53207;SDS011;39093;52.788;6.940;2024-01-30T04:29:03;33.35;;;21.75;;
53207;SDS011;39093;52.788;6.940;2024-01-30T04:31:29;29.17;;;21.23;;
53207;SDS011;39093;52.788;6.940;2024-01-30T04:33:56;28.88;;;19.77;;
53207;SDS011;39093;52.788;6.940;2024-01-30T04:36:24;29.90;;;21.25;;
53207;SDS011;39093;52.788;6.940;2024-01-30T04:38:51;29.70;;;20.30;;
53207;SDS011;39093;52.788;6.940;2024-01-30T04:41:18;29.02;;;19.55;;
53207;SDS011;39093;52.788;6.940;2024-01-30T04:43:45;30.33;;;21.00;;
53207;SDS011;39093;52.788;6.940;2024-01-30T04:46:12;27.65;;;19.92;;
53207;SDS011;39093;52.788;6.940;2024-01-30T04:48:39;28.92;;;20.38;;
53207;SDS011;39093;52.788;6.940;2024-01-30T04:51:07;28.35;;;19.88;;
53207;SDS011;39093;52.788;6.940;2024-01-30T04:53:34;29.05;;;19.50;;
53207;SDS011;39093;52.788;6.940;2024-01-30T04:56:00;27.23;;;19.70;;
53207;SDS011;39093;52.788;6.940;2024-01-30T04:58:27;30.23;;;19.50;;
53207;SDS011;39093;52.788;6.940;2024-01-30T05:00:54;27.80;;;20.08;;
53207;SDS011;39093;52.788;6.940;2024-01-30T05:03:23;29.10;;;20.88;;
53207;SDS011;39093;52.788;6.940;2024-01-30T05:05:51;28.52;;;21.52;;
53207;SDS011;39093;52.788;6.940;2024-01-30T05:08:18;31.38;;;19.60;;
53207;SDS011;39093;52.788;6.940;2024-01-30T05:10:44;30.23;;;21.23;;
53207;SDS011;39093;52.788;6.940;2024-01-30T05:13:12;24.25;;;19.52;;
53207;SDS011;39093;52.788;6.940;2024-01-30T05:15:40;28.08;;;19.95;;
53207;SDS011;39093;52.788;6.940;2024-01-30T05:18:07;30.40;;;20.50;;
53207;SDS011;39093;52.788;6.940;2024-01-30T05:20:34;27.42;;;19.77;;
53207;SDS011;39093;52.788;6.940;2024-01-30T05:23:01;23.38;;;19.38;;
53207;SDS011;39093;52.788;6.940;2024-01-30T05:25:28;26.77;;;19.02;;
53207;SDS011;39093;52.788;6.940;2024-01-30T05:27:55;27.48;;;18.90;;
53207;SDS011;39093;52.788;6.940;2024-01-30T05:30:22;32.75;;;19.67;;
53207;SDS011;39093;52.788;6.940;2024-01-30T05:32:49;28.13;;;20.42;;
53207;SDS011;39093;52.788;6.940;2024-01-30T05:35:16;26.73;;;20.67;;
53207;SDS011;39093;52.788;6.940;2024-01-30T05:37:43;29.42;;;20.80;;
53207;SDS011;39093;52.788;6.940;2024-01-30T05:40:10;27.25;;;20.48;;
53207;SDS011;39093;52.788;6.940;2024-01-30T05:42:37;30.92;;;20.25;;
53207;SDS011;39093;52.788;6.940;2024-01-30T05:45:04;30.58;;;19.48;;
53207;SDS011;39093;52.788;6.940;2024-01-30T05:47:31;28.75;;;20.48;;
53207;SDS011;39093;52.788;6.940;2024-01-30T05:49:58;31.15;;;19.88;;
53207;SDS011;39093;52.788;6.940;2024-01-30T05:52:25;27.08;;;19.85;;
53207;SDS011;39093;52.788;6.940;2024-01-30T05:54:52;28.67;;;20.08;;
53207;SDS011;39093;52.788;6.940;2024-01-30T05:57:19;26.17;;;19.58;;
53207;SDS011;39093;52.788;6.940;2024-01-30T05:59:46;31.52;;;20.40;;
53207;SDS011;39093;52.788;6.940;2024-01-30T06:02:14;33.28;;;20.40;;
53207;SDS011;39093;52.788;6.940;2024-01-30T06:04:41;27.52;;;19.50;;
53207;SDS011;39093;52.788;6.940;2024-01-30T06:07:08;28.55;;;19.10;;
53207;SDS011;39093;52.788;6.940;2024-01-30T06:09:38;30.80;;;19.75;;
53207;SDS011;39093;52.788;6.940;2024-01-30T06:12:05;32.47;;;20.35;;
53207;SDS011;39093;52.788;6.940;2024-01-30T06:14:32;32.50;;;20.17;;
53207;SDS011;39093;52.788;6.940;2024-01-30T06:16:59;28.13;;;20.58;;
53207;SDS011;39093;52.788;6.940;2024-01-30T06:19:26;27.25;;;19.75;;
53207;SDS011;39093;52.788;6.940;2024-01-30T06:21:53;25.40;;;19.20;;
53207;SDS011;39093;52.788;6.940;2024-01-30T06:24:20;28.23;;;19.65;;
53207;SDS011;39093;52.788;6.940;2024-01-30T06:26:47;28.90;;;19.20;;
53207;SDS011;39093;52.788;6.940;2024-01-30T06:29:14;27.40;;;19.00;;
53207;SDS011;39093;52.788;6.940;2024-01-30T06:31:45;29.92;;;17.92;;
53207;SDS011;39093;52.788;6.940;2024-01-30T06:34:12;26.63;;;19.15;;
53207;SDS011;39093;52.788;6.940;2024-01-30T06:36:39;25.40;;;18.20;;
53207;SDS011;39093;52.788;6.940;2024-01-30T06:39:07;25.63;;;18.83;;
53207;SDS011;39093;52.788;6.940;2024-01-30T06:41:34;27.33;;;18.55;;
53207;SDS011;39093;52.788;6.940;2024-01-30T06:44:04;31.90;;;20.48;;
53207;SDS011;39093;52.788;6.940;2024-01-30T06:46:32;28.92;;;17.45;;
53207;SDS011;39093;52.788;6.940;2024-01-30T06:49:02;25.50;;;17.40;;
53207;SDS011;39093;52.788;6.940;2024-01-30T06:51:29;22.30;;;16.10;;
53207;SDS011;39093;52.788;6.940;2024-01-30T06:53:56;25.38;;;16.90;;
53207;SDS011;39093;52.788;6.940;2024-01-30T06:56:23;25.98;;;17.52;;
53207;SDS011;39093;52.788;6.940;2024-01-30T06:58:50;22.95;;;16.63;;
53207;SDS011;39093;52.788;6.940;2024-01-30T07:01:17;21.65;;;16.20;;
53207;SDS011;39093;52.788;6.940;2024-01-30T07:03:44;21.65;;;15.00;;
53207;SDS011;39093;52.788;6.940;2024-01-30T07:06:11;26.73;;;16.65;;
53207;SDS011;39093;52.788;6.940;2024-01-30T07:08:38;25.50;;;15.77;;
53207;SDS011;39093;52.788;6.940;2024-01-30T07:11:08;21.00;;;15.65;;
53207;SDS011;39093;52.788;6.940;2024-01-30T07:13:35;23.17;;;16.65;;
53207;SDS011;39093;52.788;6.940;2024-01-30T07:16:02;23.67;;;15.73;;
53207;SDS011;39093;52.788;6.940;2024-01-30T07:18:29;20.88;;;15.32;;
53207;SDS011;39093;52.788;6.940;2024-01-30T07:20:56;24.65;;;14.60;;
53207;SDS011;39093;52.788;6.940;2024-01-30T07:23:23;21.15;;;14.05;;
53207;SDS011;39093;52.788;6.940;2024-01-30T07:25:50;21.02;;;14.73;;
53207;SDS011;39093;52.788;6.940;2024-01-30T07:28:17;23.63;;;15.20;;
53207;SDS011;39093;52.788;6.940;2024-01-30T07:30:44;20.92;;;14.95;;
53207;SDS011;39093;52.788;6.940;2024-01-30T07:33:12;17.90;;;14.27;;
53207;SDS011;39093;52.788;6.940;2024-01-30T07:35:40;20.92;;;14.23;;
53207;SDS011;39093;52.788;6.940;2024-01-30T07:38:07;21.60;;;14.20;;
53207;SDS011;39093;52.788;6.940;2024-01-30T07:40:34;26.10;;;14.50;;
53207;SDS011;39093;52.788;6.940;2024-01-30T07:43:01;23.52;;;13.45;;
53207;SDS011;39093;52.788;6.940;2024-01-30T07:45:29;22.25;;;14.20;;
53207;SDS011;39093;52.788;6.940;2024-01-30T07:47:59;21.48;;;14.95;;
53207;SDS011;39093;52.788;6.940;2024-01-30T07:50:27;16.88;;;13.38;;
53207;SDS011;39093;52.788;6.940;2024-01-30T07:52:58;22.52;;;14.32;;
53207;SDS011;39093;52.788;6.940;2024-01-30T07:55:26;19.88;;;14.20;;
53207;SDS011;39093;52.788;6.940;2024-01-30T07:57:58;21.85;;;14.45;;
53207;SDS011;39093;52.788;6.940;2024-01-30T08:00:25;23.00;;;13.77;;
53207;SDS011;39093;52.788;6.940;2024-01-30T08:02:53;19.27;;;14.27;;
53207;SDS011;39093;52.788;6.940;2024-01-30T08:05:21;22.25;;;13.85;;
53207;SDS011;39093;52.788;6.940;2024-01-30T08:07:50;23.98;;;14.13;;
53207;SDS011;39093;52.788;6.940;2024-01-30T08:10:17;19.55;;;13.55;;
53207;SDS011;39093;52.788;6.940;2024-01-30T08:12:45;18.63;;;13.85;;
53207;SDS011;39093;52.788;6.940;2024-01-30T08:15:12;20.13;;;13.40;;
53207;SDS011;39093;52.788;6.940;2024-01-30T08:17:39;18.38;;;13.32;;
53207;SDS011;39093;52.788;6.940;2024-01-30T08:20:07;20.33;;;13.68;;
53207;SDS011;39093;52.788;6.940;2024-01-30T08:22:38;21.95;;;13.77;;
53207;SDS011;39093;52.788;6.940;2024-01-30T08:25:07;17.38;;;12.52;;
53207;SDS011;39093;52.788;6.940;2024-01-30T08:27:34;20.65;;;12.90;;
53207;SDS011;39093;52.788;6.940;2024-01-30T08:30:02;19.52;;;14.13;;
53207;SDS011;39093;52.788;6.940;2024-01-30T08:32:29;25.10;;;13.43;;
53207;SDS011;39093;52.788;6.940;2024-01-30T08:34:56;20.83;;;13.32;;
53207;SDS011;39093;52.788;6.940;2024-01-30T08:37:24;19.45;;;13.73;;
53207;SDS011;39093;52.788;6.940;2024-01-30T08:39:51;18.10;;;13.48;;
53207;SDS011;39093;52.788;6.940;2024-01-30T08:42:18;16.98;;;12.85;;
53207;SDS011;39093;52.788;6.940;2024-01-30T08:44:49;22.30;;;13.18;;
53207;SDS011;39093;52.788;6.940;2024-01-30T08:47:17;22.55;;;13.70;;
53207;SDS011;39093;52.788;6.940;2024-01-30T08:49:45;20.35;;;13.55;;
53207;SDS011;39093;52.788;6.940;2024-01-30T08:52:12;18.40;;;13.30;;
53207;SDS011;39093;52.788;6.940;2024-01-30T08:54:39;18.35;;;13.10;;
53207;SDS011;39093;52.788;6.940;2024-01-30T08:57:06;19.63;;;12.10;;
53207;SDS011;39093;52.788;6.940;2024-01-30T08:59:33;20.42;;;12.43;;
53207;SDS011;39093;52.788;6.940;2024-01-30T09:02:00;23.88;;;13.00;;
53207;SDS011;39093;52.788;6.940;2024-01-30T09:04:38;19.95;;;12.15;;
53207;SDS011;39093;52.788;6.940;2024-01-30T09:07:06;20.05;;;13.10;;
53207;SDS011;39093;52.788;6.940;2024-01-30T09:09:39;19.08;;;12.98;;
53207;SDS011;39093;52.788;6.940;2024-01-30T09:12:08;16.98;;;12.63;;
53207;SDS011;39093;52.788;6.940;2024-01-30T09:14:38;18.73;;;12.63;;
53207;SDS011;39093;52.788;6.940;2024-01-30T09:17:06;19.20;;;12.00;;
53207;SDS011;39093;52.788;6.940;2024-01-30T09:19:34;23.25;;;12.93;;
53207;SDS011;39093;52.788;6.940;2024-01-30T09:22:02;17.90;;;11.55;;
53207;SDS011;39093;52.788;6.940;2024-01-30T09:24:29;20.05;;;11.57;;
53207;SDS011;39093;52.788;6.940;2024-01-30T09:26:56;17.77;;;11.52;;
53207;SDS011;39093;52.788;6.940;2024-01-30T09:29:24;22.40;;;11.85;;
53207;SDS011;39093;52.788;6.940;2024-01-30T09:31:51;17.15;;;12.27;;
53207;SDS011;39093;52.788;6.940;2024-01-30T09:34:18;18.30;;;11.50;;
53207;SDS011;39093;52.788;6.940;2024-01-30T09:36:46;19.33;;;12.50;;
53207;SDS011;39093;52.788;6.940;2024-01-30T09:39:13;14.82;;;11.60;;
53207;SDS011;39093;52.788;6.940;2024-01-30T09:44:20;17.52;;;10.57;;
53207;SDS011;39093;52.788;6.940;2024-01-30T09:46:49;16.60;;;11.13;;
53207;SDS011;39093;52.788;6.940;2024-01-30T09:49:17;17.23;;;11.45;;
53207;SDS011;39093;52.788;6.940;2024-01-30T09:51:47;19.55;;;11.18;;
53207;SDS011;39093;52.788;6.940;2024-01-30T09:54:15;17.58;;;11.07;;
53207;SDS011;39093;52.788;6.940;2024-01-30T09:56:43;16.02;;;11.05;;
53207;SDS011;39093;52.788;6.940;2024-01-30T09:59:09;15.90;;;11.73;;
53207;SDS011;39093;52.788;6.940;2024-01-30T10:01:36;14.50;;;11.05;;
53207;SDS011;39093;52.788;6.940;2024-01-30T10:04:05;18.10;;;10.90;;
53207;SDS011;39093;52.788;6.940;2024-01-30T10:06:33;18.00;;;11.82;;
53207;SDS011;39093;52.788;6.940;2024-01-30T10:09:01;14.23;;;10.77;;
53207;SDS011;39093;52.788;6.940;2024-01-30T10:11:28;17.23;;;10.45;;
53207;SDS011;39093;52.788;6.940;2024-01-30T10:13:55;16.05;;;10.80;;
53207;SDS011;39093;52.788;6.940;2024-01-30T10:16:22;14.48;;;11.38;;
53207;SDS011;39093;52.788;6.940;2024-01-30T10:18:50;16.85;;;11.40;;
53207;SDS011;39093;52.788;6.940;2024-01-30T10:21:17;16.00;;;10.18;;
53207;SDS011;39093;52.788;6.940;2024-01-30T10:23:44;15.75;;;10.95;;
53207;SDS011;39093;52.788;6.940;2024-01-30T10:26:11;19.23;;;11.27;;
53207;SDS011;39093;52.788;6.940;2024-01-30T10:28:39;18.15;;;11.35;;
53207;SDS011;39093;52.788;6.940;2024-01-30T10:31:06;16.17;;;11.40;;
53207;SDS011;39093;52.788;6.940;2024-01-30T10:33:33;19.15;;;10.73;;
53207;SDS011;39093;52.788;6.940;2024-01-30T10:36:01;16.75;;;11.98;;
53207;SDS011;39093;52.788;6.940;2024-01-30T10:38:31;17.73;;;11.32;;
53207;SDS011;39093;52.788;6.940;2024-01-30T10:41:00;13.25;;;10.00;;
53207;SDS011;39093;52.788;6.940;2024-01-30T10:43:32;15.98;;;11.23;;
53207;SDS011;39093;52.788;6.940;2024-01-30T10:46:17;16.77;;;11.68;;
53207;SDS011;39093;52.788;6.940;2024-01-30T10:48:57;23.13;;;12.00;;
53207;SDS011;39093;52.788;6.940;2024-01-30T10:51:28;18.67;;;10.95;;
53207;SDS011;39093;52.788;6.940;2024-01-30T10:53:55;18.20;;;10.23;;
53207;SDS011;39093;52.788;6.940;2024-01-30T10:56:24;19.35;;;11.00;;
53207;SDS011;39093;52.788;6.940;2024-01-30T10:58:52;15.77;;;10.88;;
53207;SDS011;39093;52.788;6.940;2024-01-30T11:01:20;23.40;;;11.07;;
53207;SDS011;39093;52.788;6.940;2024-01-30T11:03:51;24.23;;;10.88;;
53207;SDS011;39093;52.788;6.940;2024-01-30T11:06:22;19.83;;;11.23;;
53207;SDS011;39093;52.788;6.940;2024-01-30T11:09:03;17.40;;;11.48;;
53207;SDS011;39093;52.788;6.940;2024-01-30T11:11:55;17.42;;;10.13;;
53207;SDS011;39093;52.788;6.940;2024-01-30T11:14:27;16.15;;;11.00;;
53207;SDS011;39093;52.788;6.940;2024-01-30T11:16:59;20.45;;;10.95;;
53207;SDS011;39093;52.788;6.940;2024-01-30T11:19:27;18.85;;;11.30;;
53207;SDS011;39093;52.788;6.940;2024-01-30T11:21:57;19.08;;;10.13;;
53207;SDS011;39093;52.788;6.940;2024-01-30T11:24:28;15.45;;;10.65;;
53207;SDS011;39093;52.788;6.940;2024-01-30T11:26:55;16.02;;;10.75;;
53207;SDS011;39093;52.788;6.940;2024-01-30T11:29:27;17.98;;;10.35;;
53207;SDS011;39093;52.788;6.940;2024-01-30T11:31:55;15.55;;;10.52;;
53207;SDS011;39093;52.788;6.940;2024-01-30T11:34:26;20.55;;;10.60;;
53207;SDS011;39093;52.788;6.940;2024-01-30T11:36:56;19.25;;;11.05;;
53207;SDS011;39093;52.788;6.940;2024-01-30T11:39:30;24.92;;;11.63;;
53207;SDS011;39093;52.788;6.940;2024-01-30T11:41:57;20.88;;;11.35;;
53207;SDS011;39093;52.788;6.940;2024-01-30T11:44:26;23.63;;;10.95;;
53207;SDS011;39093;52.788;6.940;2024-01-30T11:46:53;24.08;;;11.55;;
53207;SDS011;39093;52.788;6.940;2024-01-30T11:49:20;14.73;;;10.73;;
53207;SDS011;39093;52.788;6.940;2024-01-30T11:51:47;24.17;;;11.30;;
53207;SDS011;39093;52.788;6.940;2024-01-30T11:54:15;25.95;;;11.30;;
53207;SDS011;39093;52.788;6.940;2024-01-30T11:56:43;20.02;;;11.77;;
53207;SDS011;39093;52.788;6.940;2024-01-30T11:59:10;16.25;;;11.65;;
53207;SDS011;39093;52.788;6.940;2024-01-30T12:01:37;19.67;;;10.63;;
53207;SDS011;39093;52.788;6.940;2024-01-30T12:04:05;15.05;;;10.88;;
53207;SDS011;39093;52.788;6.940;2024-01-30T12:06:37;17.05;;;11.50;;
53207;SDS011;39093;52.788;6.940;2024-01-30T12:09:05;19.67;;;11.20;;
53207;SDS011;39093;52.788;6.940;2024-01-30T12:11:44;22.13;;;11.68;;
53207;SDS011;39093;52.788;6.940;2024-01-30T12:14:14;16.77;;;11.90;;
53207;SDS011;39093;52.788;6.940;2024-01-30T12:16:42;21.27;;;11.93;;
53207;SDS011;39093;52.788;6.940;2024-01-30T12:19:09;22.35;;;12.38;;
53207;SDS011;39093;52.788;6.940;2024-01-30T12:21:37;21.10;;;11.23;;
53207;SDS011;39093;52.788;6.940;2024-01-30T12:24:05;20.83;;;11.95;;
53207;SDS011;39093;52.788;6.940;2024-01-30T12:26:33;19.63;;;12.85;;
53207;SDS011;39093;52.788;6.940;2024-01-30T12:29:03;19.83;;;12.20;;
53207;SDS011;39093;52.788;6.940;2024-01-30T12:31:31;20.40;;;10.65;;
53207;SDS011;39093;52.788;6.940;2024-01-30T12:33:59;18.25;;;11.55;;
53207;SDS011;39093;52.788;6.940;2024-01-30T12:36:28;15.45;;;11.05;;
53207;SDS011;39093;52.788;6.940;2024-01-30T12:38:57;22.20;;;11.40;;
53207;SDS011;39093;52.788;6.940;2024-01-30T12:41:25;19.80;;;10.93;;
53207;SDS011;39093;52.788;6.940;2024-01-30T12:43:56;17.73;;;11.52;;
53207;SDS011;39093;52.788;6.940;2024-01-30T12:46:30;17.45;;;11.45;;
53207;SDS011;39093;52.788;6.940;2024-01-30T12:51:24;17.67;;;10.32;;
53207;SDS011;39093;52.788;6.940;2024-01-30T12:53:51;15.82;;;11.95;;
53207;SDS011;39093;52.788;6.940;2024-01-30T12:56:18;17.25;;;10.10;;
53207;SDS011;39093;52.788;6.940;2024-01-30T12:58:45;16.58;;;9.30;;
53207;SDS011;39093;52.788;6.940;2024-01-30T13:01:17;15.65;;;10.05;;
53207;SDS011;39093;52.788;6.940;2024-01-30T13:03:44;18.50;;;9.90;;
53207;SDS011;39093;52.788;6.940;2024-01-30T13:06:11;13.45;;;10.13;;
53207;SDS011;39093;52.788;6.940;2024-01-30T13:08:39;17.77;;;10.45;;
53207;SDS011;39093;52.788;6.940;2024-01-30T13:11:06;18.70;;;10.23;;
53207;SDS011;39093;52.788;6.940;2024-01-30T13:13:42;14.70;;;10.65;;
53207;SDS011;39093;52.788;6.940;2024-01-30T13:16:10;17.27;;;10.27;;
53207;SDS011;39093;52.788;6.940;2024-01-30T13:18:37;16.58;;;10.25;;
53207;SDS011;39093;52.788;6.940;2024-01-30T13:21:04;16.73;;;9.23;;
53207;SDS011;39093;52.788;6.940;2024-01-30T13:23:31;17.17;;;8.98;;
53207;SDS011;39093;52.788;6.940;2024-01-30T13:25:58;17.70;;;8.88;;
53207;SDS011;39093;52.788;6.940;2024-01-30T13:28:25;15.73;;;8.85;;
53207;SDS011;39093;52.788;6.940;2024-01-30T13:30:52;16.48;;;7.72;;
53207;SDS011;39093;52.788;6.940;2024-01-30T13:33:19;16.30;;;7.88;;
53207;SDS011;39093;52.788;6.940;2024-01-30T13:35:46;17.75;;;8.18;;
53207;SDS011;39093;52.788;6.940;2024-01-30T13:38:13;14.30;;;7.18;;
53207;SDS011;39093;52.788;6.940;2024-01-30T13:40:41;15.00;;;5.65;;
53207;SDS011;39093;52.788;6.940;2024-01-30T13:43:08;13.50;;;6.00;;
53207;SDS011;39093;52.788;6.940;2024-01-30T13:45:35;20.48;;;6.22;;
53207;SDS011;39093;52.788;6.940;2024-01-30T13:48:02;11.63;;;5.90;;
53207;SDS011;39093;52.788;6.940;2024-01-30T13:50:30;10.80;;;4.72;;
53207;SDS011;39093;52.788;6.940;2024-01-30T13:52:59;11.57;;;4.38;;
53207;SDS011;39093;52.788;6.940;2024-01-30T13:55:27;10.57;;;3.72;;
53207;SDS011;39093;52.788;6.940;2024-01-30T13:57:54;8.70;;;3.10;;
53207;SDS011;39093;52.788;6.940;2024-01-30T14:00:22;8.13;;;3.25;;
53207;SDS011;39093;52.788;6.940;2024-01-30T14:02:51;7.95;;;3.00;;
53207;SDS011;39093;52.788;6.940;2024-01-30T14:05:20;10.32;;;3.33;;
53207;SDS011;39093;52.788;6.940;2024-01-30T14:07:49;9.63;;;3.20;;
53207;SDS011;39093;52.788;6.940;2024-01-30T14:10:17;6.97;;;3.03;;
53207;SDS011;39093;52.788;6.940;2024-01-30T14:12:44;6.30;;;2.92;;
53207;SDS011;39093;52.788;6.940;2024-01-30T14:15:11;6.13;;;3.05;;
53207;SDS011;39093;52.788;6.940;2024-01-30T14:17:53;6.63;;;3.22;;
53207;SDS011;39093;52.788;6.940;2024-01-30T14:20:20;9.32;;;3.78;;
53207;SDS011;39093;52.788;6.940;2024-01-30T14:22:47;6.10;;;3.38;;
53207;SDS011;39093;52.788;6.940;2024-01-30T14:25:14;7.32;;;3.83;;
53207;SDS011;39093;52.788;6.940;2024-01-30T14:27:43;4.15;;;2.97;;
53207;SDS011;39093;52.788;6.940;2024-01-30T14:30:12;4.82;;;3.22;;
53207;SDS011;39093;52.788;6.940;2024-01-30T14:32:39;8.35;;;3.13;;